createdAt,value
2023-05-10T00:01:00.595Z,18.05
2023-05-10T00:03:27.236Z,21.10
2023-05-10T00:05:54.075Z,17.05
2023-05-10T00:08:20.736Z,16.10
2023-05-10T00:10:47.418Z,17.90
2023-05-10T00:13:14.318Z,16.33
2023-05-10T00:15:41.120Z,17.27
2023-05-10T00:18:08.061Z,15.02
2023-05-10T00:20:34.708Z,15.48
2023-05-10T00:23:01.534Z,16.88
2023-05-10T00:25:28.129Z,17.77
2023-05-10T00:27:56.350Z,16.90
2023-05-10T00:30:23.020Z,17.75
2023-05-10T00:32:50.874Z,18.00
2023-05-10T00:35:17.705Z,18.33
2023-05-10T00:37:44.380Z,17.88
2023-05-10T00:40:12.234Z,16.15
2023-05-10T00:42:40.391Z,18.23
2023-05-10T00:45:08.220Z,19.27
2023-05-10T00:47:35.991Z,20.88
2023-05-10T00:50:03.461Z,20.92
2023-05-10T00:52:31.016Z,18.95
2023-05-10T00:54:59.456Z,21.75
2023-05-10T00:57:26.213Z,21.38
2023-05-10T00:59:52.984Z,19.80
2023-05-10T01:02:20.026Z,21.58
2023-05-10T01:04:47.325Z,21.77
2023-05-10T01:07:14.049Z,22.83
2023-05-10T01:09:40.776Z,24.85
2023-05-10T01:12:08.292Z,24.23
2023-05-10T01:14:37.266Z,24.42
2023-05-10T01:17:07.086Z,27.80
2023-05-10T01:19:36.065Z,26.13
2023-05-10T01:22:08.815Z,25.77
2023-05-10T01:25:27.822Z,27.65
2023-05-10T01:28:06.458Z,22.20
2023-05-10T01:31:09.425Z,24.27
2023-05-10T01:33:51.303Z,24.30
2023-05-10T01:36:31.735Z,21.65
2023-05-10T01:39:25.584Z,23.58
2023-05-10T01:42:04.121Z,18.10
2023-05-10T01:44:43.675Z,16.37
2023-05-10T01:49:55.428Z,12.87
2023-05-10T01:52:33.759Z,16.50
2023-05-10T01:55:07.293Z,14.02
2023-05-10T01:57:38.231Z,11.02
2023-05-10T02:00:05.945Z,11.25
2023-05-10T02:02:43.360Z,11.40
2023-05-10T02:05:13.776Z,12.00
2023-05-10T02:07:41.434Z,10.20
2023-05-10T02:10:10.222Z,12.43
2023-05-10T02:12:40.343Z,12.63
2023-05-10T02:15:08.884Z,12.57
2023-05-10T02:17:38.151Z,13.15
2023-05-10T02:20:08.163Z,14.30
2023-05-10T02:25:05.067Z,16.02
2023-05-10T02:27:32.406Z,17.92
2023-05-10T02:29:59.635Z,19.55
2023-05-10T02:32:28.300Z,19.15
2023-05-10T02:34:56.520Z,20.95
2023-05-10T02:37:23.615Z,21.48
2023-05-10T02:39:51.764Z,23.20
2023-05-10T02:42:23.202Z,19.63
2023-05-10T02:44:53.830Z,22.00
2023-05-10T02:47:20.886Z,21.42
2023-05-10T02:49:49.042Z,20.88
2023-05-10T02:52:24.268Z,18.92
2023-05-10T02:54:55.801Z,19.70
2023-05-10T02:57:34.687Z,15.88
2023-05-10T03:00:04.213Z,14.77
2023-05-10T03:02:32.029Z,11.90
2023-05-10T03:04:59.661Z,13.02
2023-05-10T03:07:26.704Z,12.90
2023-05-10T03:09:53.594Z,11.00
2023-05-10T03:12:32.327Z,10.82
2023-05-10T03:15:08.647Z,8.57
2023-05-10T03:17:55.340Z,6.00
2023-05-10T03:20:30.185Z,4.45
2023-05-10T03:23:03.652Z,8.20
2023-05-10T03:25:32.071Z,3.88
2023-05-10T03:28:01.005Z,3.15
2023-05-10T03:30:28.645Z,2.72
2023-05-10T03:32:55.290Z,2.30
2023-05-10T03:35:21.975Z,2.58
2023-05-10T03:37:49.972Z,2.78
2023-05-10T03:40:18.984Z,2.15
2023-05-10T03:42:45.777Z,2.78
2023-05-10T03:45:12.457Z,2.28
2023-05-10T03:47:39.147Z,2.45
2023-05-10T03:50:06.641Z,2.75
2023-05-10T03:52:34.257Z,4.40
2023-05-10T03:55:00.866Z,3.83
2023-05-10T03:57:27.443Z,3.47
2023-05-10T03:59:54.036Z,3.70
2023-05-10T04:02:20.838Z,6.40
2023-05-10T04:04:47.591Z,3.90
2023-05-10T04:07:14.168Z,4.25
2023-05-10T04:09:41.068Z,6.05
2023-05-10T04:12:10.129Z,7.90
2023-05-10T04:14:38.196Z,5.95
2023-05-10T04:17:04.878Z,6.07
2023-05-10T04:19:31.864Z,6.65
2023-05-10T04:21:58.968Z,6.10
2023-05-10T04:24:26.070Z,6.20
2023-05-10T04:26:52.679Z,6.13
2023-05-10T04:29:19.349Z,6.50
2023-05-10T04:31:45.978Z,5.70
2023-05-10T04:34:12.702Z,7.43
2023-05-10T04:36:39.335Z,6.32
2023-05-10T04:39:05.857Z,6.18
2023-05-10T04:41:32.550Z,6.78
2023-05-10T04:43:59.240Z,5.78
2023-05-10T04:46:25.899Z,5.53
2023-05-10T04:48:55.547Z,5.40
2023-05-10T04:54:05.090Z,5.00
2023-05-10T04:56:32.419Z,5.30
2023-05-10T04:58:59.035Z,5.15
2023-05-10T05:01:25.647Z,6.05
2023-05-10T05:03:53.971Z,7.13
2023-05-10T05:06:22.241Z,6.57
2023-05-10T05:08:50.528Z,6.05
2023-05-10T05:11:18.372Z,5.82
2023-05-10T05:13:44.989Z,5.57
2023-05-10T05:16:12.447Z,5.22
2023-05-10T05:18:39.404Z,5.13
2023-05-10T05:21:20.482Z,5.68
2023-05-10T05:23:47.372Z,5.10
2023-05-10T05:26:14.034Z,7.38
2023-05-10T05:28:40.710Z,8.05
2023-05-10T05:31:11.266Z,5.60
2023-05-10T05:33:38.347Z,5.95
2023-05-10T05:36:06.383Z,6.57
2023-05-10T05:38:39.881Z,7.57
2023-05-10T05:41:06.464Z,7.10
2023-05-10T05:43:43.189Z,6.93
2023-05-10T05:46:09.941Z,8.57
2023-05-10T05:48:36.570Z,9.75
2023-05-10T05:51:05.788Z,9.98
2023-05-10T05:53:33.663Z,9.60
2023-05-10T05:56:00.327Z,10.75
2023-05-10T05:58:29.004Z,9.07
2023-05-10T06:00:55.597Z,11.93
2023-05-10T06:03:22.604Z,8.80
2023-05-10T06:05:49.431Z,9.13
2023-05-10T06:08:16.137Z,8.60
2023-05-10T06:10:42.748Z,8.02
2023-05-10T06:13:09.602Z,11.27
2023-05-10T06:15:36.295Z,11.27
2023-05-10T06:18:03.056Z,8.55
2023-05-10T06:20:29.878Z,9.38
2023-05-10T06:23:02.403Z,10.65
2023-05-10T06:25:29.030Z,9.13
2023-05-10T06:28:00.074Z,9.35
2023-05-10T06:30:32.622Z,8.45
2023-05-10T06:32:59.292Z,8.95
2023-05-10T06:35:25.996Z,10.80
2023-05-10T06:37:53.051Z,9.75
2023-05-10T06:40:19.930Z,10.98
2023-05-10T06:42:47.378Z,9.75
2023-05-10T06:45:18.988Z,13.57
2023-05-10T06:47:45.847Z,11.77
2023-05-10T06:50:12.730Z,13.05
2023-05-10T06:52:39.547Z,13.23
2023-05-10T06:55:09.353Z,12.23
2023-05-10T06:57:36.365Z,16.90
2023-05-10T07:00:10.789Z,15.70
2023-05-10T07:02:37.642Z,18.92
2023-05-10T07:05:04.539Z,18.42
2023-05-10T07:07:31.386Z,21.08
2023-05-10T07:09:58.701Z,22.48
2023-05-10T07:12:25.869Z,23.40
2023-05-10T07:14:52.652Z,24.38
2023-05-10T07:17:19.403Z,21.27
2023-05-10T07:19:46.143Z,23.65
2023-05-10T07:22:12.730Z,27.17
2023-05-10T07:24:39.366Z,23.48
2023-05-10T07:27:06.007Z,29.40
2023-05-10T07:29:32.622Z,25.00
2023-05-10T07:31:59.341Z,25.75
2023-05-10T07:34:26.411Z,28.92
2023-05-10T07:36:53.739Z,30.90
2023-05-10T07:39:27.290Z,31.50
2023-05-10T07:41:55.771Z,37.35
2023-05-10T07:44:22.416Z,35.13
2023-05-10T07:46:49.584Z,30.15
2023-05-10T07:49:17.239Z,32.88
2023-05-10T07:51:44.068Z,32.47
2023-05-10T07:54:10.809Z,37.20
2023-05-10T07:56:37.573Z,31.35
2023-05-10T07:59:06.081Z,32.30
2023-05-10T08:01:34.689Z,34.53
2023-05-10T08:04:02.954Z,34.87
2023-05-10T08:06:30.840Z,34.60
2023-05-10T08:08:57.611Z,32.50
2023-05-10T08:11:24.416Z,32.75
2023-05-10T08:13:51.897Z,35.80
2023-05-10T08:16:18.987Z,38.83
2023-05-10T08:18:47.875Z,35.97
2023-05-10T08:21:27.559Z,39.45
2023-05-10T08:26:21.930Z,43.65
2023-05-10T08:28:48.547Z,44.80
2023-05-10T08:31:15.722Z,43.72
2023-05-10T08:33:44.293Z,53.22
2023-05-10T08:36:11.451Z,48.88
2023-05-10T08:38:38.989Z,50.60
2023-05-10T08:41:06.305Z,52.17
2023-05-10T08:43:33.330Z,55.80
2023-05-10T08:46:05.100Z,54.50
2023-05-10T08:48:34.358Z,49.42
2023-05-10T08:51:01.854Z,46.17
2023-05-10T08:53:31.964Z,48.20
2023-05-10T08:56:02.867Z,56.50
2023-05-10T08:58:29.530Z,52.00
2023-05-10T09:00:56.991Z,45.97
2023-05-10T09:03:23.684Z,45.08
2023-05-10T09:05:50.602Z,41.78
2023-05-10T09:08:18.357Z,42.33
2023-05-10T09:10:48.119Z,40.80
2023-05-10T09:13:18.729Z,39.85
2023-05-10T09:15:46.153Z,36.22
2023-05-10T09:18:13.635Z,44.75
2023-05-10T09:20:40.523Z,42.80
2023-05-10T09:23:07.654Z,40.15
2023-05-10T09:25:34.674Z,39.67
2023-05-10T09:28:01.277Z,39.10
2023-05-10T09:30:35.699Z,38.35
2023-05-10T09:33:07.318Z,28.73
2023-05-10T09:35:34.667Z,29.02
2023-05-10T09:38:05.875Z,34.42
2023-05-10T09:40:32.969Z,30.33
2023-05-10T09:43:02.414Z,30.42
2023-05-10T09:45:35.038Z,27.42
2023-05-10T09:48:04.129Z,30.00
2023-05-10T09:50:31.481Z,29.13
2023-05-10T09:53:00.813Z,25.50
2023-05-10T09:55:39.284Z,27.55
2023-05-10T09:58:14.854Z,26.13
2023-05-10T10:00:46.370Z,24.98
2023-05-10T10:03:15.599Z,29.65
2023-05-10T10:05:50.723Z,26.15
2023-05-10T10:08:26.082Z,24.02
2023-05-10T10:10:52.808Z,24.38
2023-05-10T10:13:22.136Z,25.88
2023-05-10T10:15:52.239Z,23.95
2023-05-10T10:18:28.015Z,23.42
2023-05-10T10:20:56.920Z,24.00
2023-05-10T10:23:24.556Z,22.35
2023-05-10T10:25:52.876Z,23.73
2023-05-10T10:28:34.209Z,20.95
2023-05-10T10:31:13.503Z,20.45
2023-05-10T10:36:16.538Z,23.92
2023-05-10T10:38:49.182Z,25.73
2023-05-10T10:41:49.709Z,21.15
2023-05-10T10:44:31.974Z,21.80
2023-05-10T10:47:19.502Z,22.23
2023-05-10T10:49:52.774Z,23.52
2023-05-10T10:52:28.726Z,16.58
2023-05-10T10:55:02.447Z,22.17
2023-05-10T10:57:32.174Z,18.15
2023-05-10T11:00:19.092Z,22.65
2023-05-10T11:02:47.199Z,18.55
2023-05-10T11:05:43.061Z,15.27
2023-05-10T11:08:36.940Z,13.43
2023-05-10T11:11:10.396Z,17.45
2023-05-10T11:13:51.299Z,14.20
2023-05-10T11:16:21.505Z,16.88
2023-05-10T11:19:07.771Z,19.58
2023-05-10T11:21:44.867Z,19.35
2023-05-10T11:24:19.893Z,16.35
2023-05-10T11:26:46.864Z,19.13
2023-05-10T11:29:14.774Z,22.33
2023-05-10T11:31:46.295Z,21.90
2023-05-10T11:34:23.504Z,22.30
2023-05-10T11:36:56.291Z,22.38
2023-05-10T11:39:27.733Z,21.42
2023-05-10T11:41:55.441Z,23.25
2023-05-10T11:44:22.174Z,22.45
2023-05-10T11:46:50.053Z,21.90
2023-05-10T11:49:16.783Z,23.48
2023-05-10T11:51:44.556Z,21.23
2023-05-10T11:54:12.218Z,21.05
2023-05-10T11:56:42.001Z,21.70
2023-05-10T11:59:09.316Z,24.40
2023-05-10T12:01:37.580Z,22.95
2023-05-10T12:04:04.600Z,21.65
2023-05-10T12:06:38.128Z,23.00
2023-05-10T12:09:11.411Z,20.40
2023-05-10T12:11:43.511Z,23.05
2023-05-10T12:14:11.650Z,26.00
2023-05-10T12:16:38.262Z,25.50
2023-05-10T12:19:06.457Z,26.20
2023-05-10T12:21:34.287Z,23.23
2023-05-10T12:24:03.929Z,30.58
2023-05-10T12:26:30.969Z,22.58
2023-05-10T12:29:14.747Z,20.45
2023-05-10T12:32:00.002Z,24.85
2023-05-10T12:34:39.504Z,25.80
2023-05-10T12:39:43.872Z,24.80
2023-05-10T12:42:11.521Z,30.90
2023-05-10T12:44:38.165Z,25.73
2023-05-10T12:47:04.893Z,26.83
2023-05-10T12:49:31.576Z,31.65
2023-05-10T12:51:58.146Z,31.92
2023-05-10T12:54:25.095Z,31.10
2023-05-10T12:56:51.798Z,29.85
2023-05-10T12:59:19.688Z,26.88
2023-05-10T13:01:46.492Z,29.77
2023-05-10T13:04:13.260Z,31.33
2023-05-10T13:06:39.938Z,29.05
2023-05-10T13:09:06.610Z,31.83
2023-05-10T13:11:33.657Z,35.33
2023-05-10T13:14:06.987Z,36.05
2023-05-10T13:16:34.020Z,36.17
2023-05-10T13:19:01.464Z,34.10
2023-05-10T13:21:28.821Z,32.78
2023-05-10T13:23:55.462Z,31.08
2023-05-10T13:26:22.474Z,30.98
2023-05-10T13:28:49.834Z,30.48
2023-05-10T13:31:16.721Z,26.73
2023-05-10T13:33:43.431Z,26.70
2023-05-10T13:36:10.111Z,27.70
2023-05-10T13:38:37.094Z,22.38
2023-05-10T13:41:04.178Z,19.80
2023-05-10T13:43:30.927Z,19.40
2023-05-10T13:45:57.810Z,23.80
2023-05-10T13:48:24.459Z,23.33
2023-05-10T13:50:51.089Z,25.63
2023-05-10T13:53:17.860Z,24.48
2023-05-10T13:55:44.517Z,28.40
2023-05-10T13:58:11.664Z,27.38
2023-05-10T14:00:38.369Z,28.00
2023-05-10T14:03:06.339Z,23.27
2023-05-10T14:05:33.072Z,24.60
2023-05-10T14:07:59.626Z,28.02
2023-05-10T14:10:26.448Z,25.27
2023-05-10T14:12:53.102Z,28.67
2023-05-10T14:15:20.053Z,27.70
2023-05-10T14:17:46.814Z,29.85
2023-05-10T14:20:14.363Z,25.80
2023-05-10T14:22:41.462Z,31.77
2023-05-10T14:25:08.769Z,29.20
2023-05-10T14:27:38.077Z,27.05
2023-05-10T14:30:05.082Z,26.60
2023-05-10T14:32:33.042Z,27.40
2023-05-10T14:35:00.537Z,22.80
2023-05-10T14:37:32.266Z,25.15
2023-05-10T14:39:59.171Z,22.90
2023-05-10T14:42:25.743Z,28.52
2023-05-10T14:44:52.406Z,24.27
2023-05-10T14:47:19.045Z,26.60
2023-05-10T14:49:45.687Z,24.98
2023-05-10T14:52:13.251Z,19.58
2023-05-10T14:54:40.157Z,23.85
2023-05-10T14:57:07.481Z,21.88
2023-05-10T14:59:34.065Z,20.75
2023-05-10T15:02:01.045Z,22.27
2023-05-10T15:04:28.511Z,22.83
2023-05-10T15:07:02.293Z,23.40
2023-05-10T15:09:28.936Z,24.05
2023-05-10T15:11:56.142Z,11.90
2023-05-10T15:14:23.574Z,7.88
2023-05-10T15:16:51.815Z,10.38
2023-05-10T15:19:18.429Z,18.58
2023-05-10T15:21:49.094Z,14.43
2023-05-10T15:24:27.694Z,19.58
2023-05-10T15:26:54.912Z,21.90
2023-05-10T15:29:21.822Z,25.20
2023-05-10T15:31:49.039Z,27.63
2023-05-10T15:34:19.955Z,29.08
2023-05-10T15:36:46.741Z,33.35
2023-05-10T15:39:13.627Z,35.22
2023-05-10T15:41:40.322Z,33.55
2023-05-10T15:44:07.161Z,34.95
2023-05-10T15:46:38.673Z,32.53
2023-05-10T15:49:06.811Z,35.72
2023-05-10T15:51:36.802Z,33.47
2023-05-10T15:54:07.731Z,33.88
2023-05-10T15:56:35.201Z,28.60
2023-05-10T15:59:02.078Z,35.33
2023-05-10T16:01:29.109Z,34.35
2023-05-10T16:03:55.869Z,32.80
2023-05-10T16:06:22.485Z,34.40
2023-05-10T16:08:49.096Z,33.42
2023-05-10T16:11:16.034Z,34.25
2023-05-10T16:13:42.647Z,32.05
2023-05-10T16:16:09.530Z,30.67
2023-05-10T16:18:36.297Z,30.83
2023-05-10T16:21:03.404Z,30.88
2023-05-10T16:23:30.602Z,32.83
2023-05-10T16:25:57.219Z,37.38
2023-05-10T16:28:23.879Z,31.70
2023-05-10T16:30:51.617Z,27.48
2023-05-10T16:33:19.714Z,29.23
2023-05-10T16:35:46.388Z,30.50
2023-05-10T16:38:13.362Z,30.48
2023-05-10T16:40:39.987Z,30.15
2023-05-10T16:43:06.647Z,30.20
2023-05-10T16:45:33.288Z,28.08
2023-05-10T16:48:00.090Z,30.80
2023-05-10T16:50:26.745Z,25.92
2023-05-10T16:52:53.412Z,27.00
2023-05-10T16:55:20.682Z,26.55
2023-05-10T16:57:47.310Z,28.95
2023-05-10T17:00:17.185Z,29.65
2023-05-10T17:02:43.859Z,30.65
2023-05-10T17:05:13.029Z,28.25
2023-05-10T17:07:39.655Z,31.98
2023-05-10T17:10:07.125Z,29.55
2023-05-10T17:12:34.156Z,26.90
2023-05-10T17:15:00.762Z,29.55
2023-05-10T17:17:27.417Z,25.27
2023-05-10T17:19:54.141Z,31.85
2023-05-10T17:22:22.268Z,30.85
2023-05-10T17:24:48.879Z,25.83
2023-05-10T17:27:15.662Z,29.83
2023-05-10T17:29:42.899Z,27.63
2023-05-10T17:32:09.548Z,32.97
2023-05-10T17:34:37.326Z,29.17
2023-05-10T17:37:05.058Z,30.40
2023-05-10T17:39:31.727Z,31.42
2023-05-10T17:41:58.389Z,27.70
2023-05-10T17:44:25.958Z,29.70
2023-05-10T17:46:52.508Z,31.70
2023-05-10T17:49:19.109Z,34.45
2023-05-10T17:51:48.107Z,30.45
2023-05-10T17:54:16.911Z,37.95
2023-05-10T17:56:43.584Z,34.42
2023-05-10T17:59:10.281Z,33.88
2023-05-10T18:01:36.980Z,32.03
2023-05-10T18:04:04.648Z,32.97
2023-05-10T18:06:32.346Z,32.40
2023-05-10T18:08:58.987Z,25.63
2023-05-10T18:11:26.260Z,26.27
2023-05-10T18:13:52.972Z,28.15
2023-05-10T18:16:19.624Z,26.73
2023-05-10T18:18:46.351Z,28.88
2023-05-10T18:21:13.598Z,22.60
2023-05-10T18:23:40.535Z,22.75
2023-05-10T18:26:08.399Z,25.48
2023-05-10T18:28:43.265Z,24.85
2023-05-10T18:31:14.862Z,26.08
2023-05-10T18:33:41.545Z,25.40
2023-05-10T18:36:08.867Z,26.17
2023-05-10T18:38:35.508Z,30.00
2023-05-10T18:41:02.143Z,27.42
2023-05-10T18:43:28.883Z,30.73
2023-05-10T18:45:55.518Z,30.17
2023-05-10T18:48:22.096Z,25.65
2023-05-10T18:50:48.724Z,26.45
2023-05-10T18:53:15.451Z,28.98
2023-05-10T18:55:42.418Z,24.17
2023-05-10T18:58:09.167Z,27.27
2023-05-10T19:00:35.969Z,30.00
2023-05-10T19:03:02.795Z,26.65
2023-05-10T19:05:31.562Z,26.95
2023-05-10T19:07:58.158Z,26.48
2023-05-10T19:10:25.909Z,31.73
2023-05-10T19:12:52.681Z,30.67
2023-05-10T19:15:20.943Z,28.55
2023-05-10T19:17:50.295Z,33.65
2023-05-10T19:20:17.708Z,31.75
2023-05-10T19:23:02.272Z,30.27
2023-05-10T19:25:34.290Z,29.90
2023-05-10T19:28:00.928Z,31.67
2023-05-10T19:30:30.511Z,30.55
2023-05-10T19:32:57.332Z,32.17
2023-05-10T19:35:24.077Z,32.40
2023-05-10T19:37:51.908Z,29.98
2023-05-10T19:40:18.780Z,35.20
2023-05-10T19:42:45.342Z,37.45
2023-05-10T19:45:12.331Z,31.88
2023-05-10T19:47:39.030Z,30.92
2023-05-10T19:50:09.107Z,32.42
2023-05-10T19:52:36.515Z,32.75
2023-05-10T19:55:04.430Z,29.05
2023-05-10T19:57:30.980Z,31.02
2023-05-10T19:59:57.594Z,28.00
2023-05-10T20:02:24.239Z,27.75
2023-05-10T20:04:51.268Z,31.63
2023-05-10T20:07:17.875Z,32.55
2023-05-10T20:09:44.567Z,31.85
2023-05-10T20:12:11.156Z,31.40
2023-05-10T20:14:37.871Z,29.55
2023-05-10T20:17:04.773Z,28.38
2023-05-10T20:19:31.688Z,29.60
2023-05-10T20:21:58.871Z,29.23
2023-05-10T20:24:25.494Z,32.22
2023-05-10T20:26:52.043Z,32.88
2023-05-10T20:29:22.126Z,31.73
2023-05-10T20:31:48.856Z,31.70
2023-05-10T20:34:15.519Z,31.90
2023-05-10T20:36:42.172Z,35.08
2023-05-10T20:39:09.451Z,27.83
2023-05-10T20:41:36.152Z,34.55
2023-05-10T20:44:02.782Z,31.40
2023-05-10T20:46:30.311Z,31.33
2023-05-10T20:48:57.377Z,29.30
2023-05-10T20:51:24.197Z,29.95
2023-05-10T20:53:50.797Z,32.25
2023-05-10T20:56:18.710Z,30.92
2023-05-10T20:58:45.331Z,32.58
2023-05-10T21:01:11.998Z,32.67
2023-05-10T21:03:38.573Z,35.97
2023-05-10T21:06:05.263Z,36.15
2023-05-10T21:08:31.800Z,37.90
2023-05-10T21:10:59.451Z,36.97
2023-05-10T21:13:26.072Z,38.45
2023-05-10T21:15:53.204Z,41.22
2023-05-10T21:18:19.856Z,36.05
2023-05-10T21:20:46.562Z,42.97
2023-05-10T21:23:13.409Z,41.75
2023-05-10T21:25:40.091Z,40.28
2023-05-10T21:28:06.819Z,45.30
2023-05-10T21:30:33.866Z,43.92
2023-05-10T21:33:01.672Z,43.13
2023-05-10T21:35:29.821Z,47.63
2023-05-10T21:37:57.408Z,48.72
2023-05-10T21:40:24.243Z,50.88
2023-05-10T21:42:51.061Z,50.40
2023-05-10T21:45:19.218Z,46.40
2023-05-10T21:47:45.957Z,53.03
2023-05-10T21:50:13.060Z,53.28
2023-05-10T21:52:39.690Z,55.83
2023-05-10T21:55:08.410Z,58.10
2023-05-10T21:57:35.031Z,52.13
2023-05-10T22:00:01.724Z,50.35
2023-05-10T22:02:31.204Z,50.58
2023-05-10T22:04:58.093Z,49.42
2023-05-10T22:07:24.694Z,46.67
2023-05-10T22:09:58.561Z,48.75
2023-05-10T22:12:25.891Z,45.03
2023-05-10T22:15:06.425Z,48.70
2023-05-10T22:17:37.665Z,46.67
2023-05-10T22:20:05.539Z,45.20
2023-05-10T22:22:32.080Z,41.88
2023-05-10T22:24:58.976Z,42.47
2023-05-10T22:27:25.637Z,48.55
2023-05-10T22:29:52.894Z,44.60
2023-05-10T22:32:19.581Z,39.03
2023-05-10T22:34:46.231Z,39.05
2023-05-10T22:37:15.320Z,38.22
2023-05-10T22:39:41.912Z,38.38
2023-05-10T22:42:08.465Z,35.92
2023-05-10T22:44:35.075Z,34.75
2023-05-10T22:47:01.813Z,38.65
2023-05-10T22:49:28.576Z,39.85
2023-05-10T22:51:55.160Z,36.28
2023-05-10T22:54:21.737Z,34.08
2023-05-10T22:56:48.401Z,35.25
2023-05-10T22:59:15.018Z,33.78
2023-05-10T23:01:41.820Z,29.15
2023-05-10T23:04:08.493Z,33.53
2023-05-10T23:06:35.112Z,28.77
2023-05-10T23:09:01.706Z,32.58
2023-05-10T23:11:28.369Z,31.75
2023-05-10T23:13:55.161Z,28.77
2023-05-10T23:16:21.867Z,27.73
2023-05-10T23:18:48.684Z,27.60
2023-05-10T23:21:15.622Z,26.02
2023-05-10T23:23:42.313Z,24.88
2023-05-10T23:26:09.406Z,26.25
2023-05-10T23:28:35.948Z,28.15
2023-05-10T23:31:02.613Z,26.15
2023-05-10T23:33:29.238Z,29.55
2023-05-10T23:35:56.122Z,24.48
2023-05-10T23:38:22.708Z,25.80
2023-05-10T23:40:50.427Z,28.92
2023-05-10T23:43:19.682Z,26.50
2023-05-10T23:45:54.740Z,21.98
2023-05-10T23:48:21.535Z,25.98
2023-05-10T23:50:48.136Z,24.23
2023-05-10T23:53:14.867Z,21.40
2023-05-10T23:55:41.461Z,22.70
2023-05-10T23:58:08.150Z,23.67
